Duncanville, Texas
Current Conditions -  °F | °C
As of 3:53 PM on Monday 24 Nov 2014 (Local Time) from KRBD Reporting Station
Clear Clear  
Wind Chill: 16°   Ceiling: Unl
Heat Index: 16°   Visibility: 10mi
Dew Point: -6°   Wind: 6mph
Humidity: 22%   Direction: 290°WNW
Pressure: 30.05"   Gusts: NA
Location:  32.65°N, 96.91°W
Report Text: KRBD 242153Z AUTO 29005KT 10SM CLR 16/M06 A3005 RMK AO2 SLP173 T01561061
Loading
Personal Weather Stations






























Interactive Weather Map New forecast layout! Learn more

10-Day Weather Forecast

Advertisements
Track Severe Weather on mobile